Terminal Aerodrome Forecast
Issued by NWS

Home | Current Version | Previous Version | Text Only | Print | Product List | Glossary On
Versions: 1 2 3 4 5 6 7 8 9 10 11 12 13 14
000
FTUS42 KMLB 182000 AAA
TAFTIX
TAF AMD
KTIX 182017Z 1820/1918 08007KT P6SM SCT100
     FM190100 34002KT P6SM BKN250
     FM191500 35006KT P6SM BKN250
     FM191700 02007KT P6SM BKN250=

USA.gov is the U.S. government's official web portal to all federal, state and local government web resources and services.